createdAt,value
2023-05-09T00:02:12.978Z,21.78
2023-05-09T00:04:42.826Z,21.75
2023-05-09T00:07:11.591Z,21.76
2023-05-09T00:09:40.453Z,21.77
2023-05-09T00:12:09.777Z,21.74
2023-05-09T00:14:40.869Z,21.76
2023-05-09T00:17:09.870Z,21.79
2023-05-09T00:19:39.430Z,21.80
2023-05-09T00:22:09.522Z,21.75
2023-05-09T00:24:38.577Z,21.78
2023-05-09T00:27:07.194Z,21.78
2023-05-09T00:29:36.312Z,21.76
2023-05-09T00:32:05.254Z,21.73
2023-05-09T00:34:34.325Z,21.77
2023-05-09T00:37:02.848Z,21.76
2023-05-09T00:39:31.696Z,21.78
2023-05-09T00:42:00.251Z,21.77
2023-05-09T00:44:29.346Z,21.77
2023-05-09T00:46:57.897Z,21.79
2023-05-09T00:49:27.024Z,21.78
2023-05-09T00:51:56.896Z,21.80
2023-05-09T00:54:26.378Z,21.79
2023-05-09T00:56:54.984Z,21.78
2023-05-09T00:59:24.371Z,21.78
2023-05-09T01:01:52.897Z,21.73
2023-05-09T01:04:21.904Z,21.78
2023-05-09T01:07:31.353Z,21.78
2023-05-09T01:10:29.565Z,21.74
2023-05-09T01:13:14.658Z,21.78
2023-05-09T01:16:35.523Z,21.78
2023-05-09T01:19:37.056Z,21.80
2023-05-09T01:22:09.165Z,21.77
2023-05-09T01:25:30.668Z,21.73
2023-05-09T01:28:35.933Z,21.73
2023-05-09T01:31:05.161Z,21.73
2023-05-09T01:33:34.537Z,21.77
2023-05-09T01:36:08.325Z,21.74
2023-05-09T01:38:38.752Z,21.75
2023-05-09T01:41:07.389Z,21.76
2023-05-09T01:43:36.369Z,21.75
2023-05-09T01:46:06.271Z,21.72
2023-05-09T01:48:36.763Z,21.73
2023-05-09T01:51:05.902Z,21.77
2023-05-09T01:53:35.010Z,21.76
2023-05-09T01:56:04.906Z,21.76
2023-05-09T01:58:34.207Z,21.72
2023-05-09T02:01:02.821Z,21.70
2023-05-09T02:03:34.231Z,21.70
2023-05-09T02:06:02.791Z,21.70
2023-05-09T02:08:32.311Z,21.67
2023-05-09T02:11:02.130Z,21.68
2023-05-09T02:13:31.376Z,21.71
2023-05-09T02:16:00.090Z,21.71
2023-05-09T02:18:29.697Z,21.71
2023-05-09T02:20:58.360Z,21.70
2023-05-09T02:23:27.207Z,21.72
2023-05-09T02:25:55.784Z,21.70
2023-05-09T02:28:25.750Z,21.68
2023-05-09T02:30:54.308Z,21.69
2023-05-09T02:33:23.620Z,21.69
2023-05-09T02:35:52.189Z,21.73
2023-05-09T02:38:21.696Z,21.68
2023-05-09T02:40:52.267Z,21.70
2023-05-09T02:43:22.343Z,21.72
2023-05-09T02:45:51.138Z,21.70
2023-05-09T02:48:20.160Z,21.67
2023-05-09T02:50:48.700Z,21.68
2023-05-09T02:53:17.522Z,21.68
2023-05-09T02:55:46.288Z,21.68
2023-05-09T02:58:15.499Z,21.67
2023-05-09T03:00:45.707Z,21.64
2023-05-09T03:03:18.321Z,21.69
2023-05-09T03:05:47.783Z,21.63
2023-05-09T03:08:16.620Z,21.67
2023-05-09T03:10:45.873Z,21.68
2023-05-09T03:13:15.521Z,21.66
2023-05-09T03:15:44.109Z,21.67
2023-05-09T03:18:14.997Z,21.66
2023-05-09T03:20:43.581Z,21.64
2023-05-09T03:23:12.403Z,21.64
2023-05-09T03:25:41.105Z,21.63
2023-05-09T03:28:09.965Z,21.64
2023-05-09T03:30:38.852Z,21.63
2023-05-09T03:33:11.689Z,21.60
2023-05-09T03:35:40.247Z,21.62
2023-05-09T03:38:10.150Z,21.63
2023-05-09T03:40:39.215Z,21.65
2023-05-09T03:43:11.803Z,21.65
2023-05-09T03:45:40.686Z,21.66
2023-05-09T03:48:12.159Z,21.66
2023-05-09T03:50:46.613Z,21.64
2023-05-09T03:53:17.565Z,21.65
2023-05-09T03:55:48.697Z,21.66
2023-05-09T03:58:19.812Z,21.61
2023-05-09T04:00:49.130Z,21.61
2023-05-09T04:03:23.573Z,21.62
2023-05-09T04:05:54.584Z,21.61
2023-05-09T04:08:32.527Z,21.61
2023-05-09T04:11:02.479Z,21.61
2023-05-09T04:13:33.210Z,21.57
2023-05-09T04:16:05.782Z,21.61
2023-05-09T04:18:36.807Z,21.51
2023-05-09T04:21:06.486Z,21.48
2023-05-09T04:23:35.410Z,21.51
2023-05-09T04:26:04.611Z,21.55
2023-05-09T04:28:33.831Z,21.52
2023-05-09T04:31:03.277Z,21.53
2023-05-09T04:33:33.587Z,21.55
2023-05-09T04:36:04.571Z,21.51
2023-05-09T04:38:33.674Z,21.47
2023-05-09T04:41:03.402Z,21.39
2023-05-09T04:43:32.866Z,21.38
2023-05-09T04:46:01.468Z,21.39
2023-05-09T04:48:30.568Z,21.30
2023-05-09T04:50:59.176Z,21.34
2023-05-09T04:53:28.586Z,21.36
2023-05-09T04:55:58.753Z,21.34
2023-05-09T04:58:27.738Z,21.35
2023-05-09T05:00:58.125Z,21.36
2023-05-09T05:03:27.009Z,21.38
2023-05-09T05:05:56.589Z,21.44
2023-05-09T05:08:25.695Z,21.42
2023-05-09T05:10:55.133Z,21.47
2023-05-09T05:13:24.848Z,21.45
2023-05-09T05:15:59.075Z,21.51
2023-05-09T05:18:28.107Z,21.53
2023-05-09T05:20:56.753Z,21.52
2023-05-09T05:23:27.385Z,21.50
2023-05-09T05:25:57.279Z,21.51
2023-05-09T05:28:26.954Z,21.55
2023-05-09T05:30:55.694Z,21.49
2023-05-09T05:33:24.846Z,21.52
2023-05-09T05:35:54.193Z,21.53
2023-05-09T05:38:24.085Z,21.52
2023-05-09T05:40:56.408Z,21.53
2023-05-09T05:43:26.728Z,21.56
2023-05-09T05:45:56.011Z,21.51
2023-05-09T05:48:26.934Z,21.56
2023-05-09T05:50:56.698Z,21.57
2023-05-09T05:53:30.817Z,21.57
2023-05-09T05:56:01.277Z,21.53
2023-05-09T05:58:31.025Z,21.57
2023-05-09T06:00:59.887Z,21.57
2023-05-09T06:03:28.829Z,21.57
2023-05-09T06:06:01.801Z,21.63
2023-05-09T06:08:31.122Z,21.61
2023-05-09T06:11:01.877Z,21.61
2023-05-09T06:13:30.842Z,21.57
2023-05-09T06:16:18.725Z,21.56
2023-05-09T06:18:51.506Z,21.51
2023-05-09T06:21:23.116Z,21.59
2023-05-09T06:24:07.724Z,21.56
2023-05-09T06:26:38.957Z,21.54
2023-05-09T06:29:08.140Z,21.58
2023-05-09T06:31:39.273Z,21.60
2023-05-09T06:34:08.714Z,21.60
2023-05-09T06:36:37.309Z,21.56
2023-05-09T06:39:06.230Z,21.57
2023-05-09T06:41:34.796Z,21.59
2023-05-09T06:44:03.642Z,21.57
2023-05-09T06:46:32.261Z,21.57
2023-05-09T06:49:02.969Z,21.60
2023-05-09T06:51:31.685Z,21.62
2023-05-09T06:54:00.649Z,21.63
2023-05-09T06:56:29.185Z,21.63
2023-05-09T06:58:58.195Z,21.67
2023-05-09T07:01:27.190Z,21.67
2023-05-09T07:03:56.287Z,21.69
2023-05-09T07:06:24.837Z,21.69
2023-05-09T07:08:53.690Z,21.72
2023-05-09T07:11:22.542Z,21.69
2023-05-09T07:13:51.428Z,21.71
2023-05-09T07:16:23.127Z,21.71
2023-05-09T07:18:52.116Z,21.70
2023-05-09T07:21:20.740Z,21.71
2023-05-09T07:23:49.701Z,21.71
2023-05-09T07:26:18.271Z,21.71
2023-05-09T07:28:47.180Z,21.72
2023-05-09T07:31:15.814Z,21.72
2023-05-09T07:33:44.714Z,21.71
2023-05-09T07:36:15.287Z,21.72
2023-05-09T07:38:44.179Z,21.71
2023-05-09T07:41:12.773Z,21.75
2023-05-09T07:43:41.885Z,21.78
2023-05-09T07:46:10.543Z,21.76
2023-05-09T07:48:40.026Z,21.70
2023-05-09T07:51:08.626Z,21.78
2023-05-09T07:53:37.760Z,21.79
2023-05-09T07:56:09.701Z,21.79
2023-05-09T07:58:38.630Z,21.75
2023-05-09T08:01:07.145Z,21.81
2023-05-09T08:03:36.192Z,21.81
2023-05-09T08:06:04.798Z,21.80
2023-05-09T08:08:33.777Z,21.79
2023-05-09T08:11:02.386Z,21.82
2023-05-09T08:13:31.213Z,21.82
2023-05-09T08:16:00.948Z,21.84
2023-05-09T08:18:29.903Z,21.83
2023-05-09T08:21:00.020Z,21.80
2023-05-09T08:23:30.687Z,21.81
2023-05-09T08:25:59.402Z,21.79
2023-05-09T08:28:31.053Z,21.83
2023-05-09T08:30:59.587Z,21.84
2023-05-09T08:33:28.504Z,21.88
2023-05-09T08:35:57.058Z,21.89
2023-05-09T08:38:26.233Z,21.89
2023-05-09T08:41:01.171Z,21.91
2023-05-09T08:43:30.100Z,21.93
2023-05-09T08:46:08.811Z,21.95
2023-05-09T08:48:40.709Z,21.95
2023-05-09T08:51:10.576Z,21.96
2023-05-09T08:53:39.375Z,21.97
2023-05-09T08:56:08.319Z,21.99
2023-05-09T08:58:37.108Z,21.97
2023-05-09T09:01:07.206Z,22.00
2023-05-09T09:03:36.928Z,22.01
2023-05-09T09:06:07.142Z,22.02
2023-05-09T09:08:36.199Z,22.03
2023-05-09T09:11:05.021Z,22.03
2023-05-09T09:13:35.198Z,22.05
2023-05-09T09:16:04.083Z,22.04
2023-05-09T09:18:33.396Z,22.03
2023-05-09T09:21:07.868Z,22.02
2023-05-09T09:23:37.636Z,22.04
2023-05-09T09:26:06.083Z,22.04
2023-05-09T09:28:35.246Z,22.02
2023-05-09T09:31:03.970Z,22.03
2023-05-09T09:33:36.304Z,22.04
2023-05-09T09:36:04.955Z,22.04
2023-05-09T09:38:40.810Z,22.08
2023-05-09T09:41:11.302Z,22.09
2023-05-09T09:43:40.135Z,22.09
2023-05-09T09:46:10.222Z,22.11
2023-05-09T09:48:39.804Z,22.13
2023-05-09T09:51:11.620Z,22.09
2023-05-09T09:53:44.028Z,22.08
2023-05-09T09:56:12.480Z,22.10
2023-05-09T09:58:41.485Z,22.08
2023-05-09T10:01:14.269Z,22.08
2023-05-09T10:03:45.427Z,22.12
2023-05-09T10:06:15.402Z,22.09
2023-05-09T10:08:47.617Z,22.12
2023-05-09T10:11:16.547Z,22.11
2023-05-09T10:13:45.489Z,22.12
2023-05-09T10:16:14.126Z,22.14
2023-05-09T10:18:43.322Z,22.05
2023-05-09T10:21:14.158Z,22.05
2023-05-09T10:23:47.080Z,21.74
2023-05-09T10:26:27.700Z,21.76
2023-05-09T10:28:57.692Z,21.89
2023-05-09T10:31:27.598Z,21.89
2023-05-09T10:33:56.595Z,21.99
2023-05-09T10:36:25.237Z,21.95
2023-05-09T10:38:55.237Z,21.95
2023-05-09T10:41:24.286Z,21.84
2023-05-09T10:43:57.019Z,21.59
2023-05-09T10:46:27.469Z,21.36
2023-05-09T10:48:56.754Z,21.71
2023-05-09T10:51:25.389Z,21.82
2023-05-09T10:53:56.122Z,21.64
2023-05-09T10:56:27.453Z,21.82
2023-05-09T10:58:56.715Z,21.94
2023-05-09T11:01:37.535Z,22.01
2023-05-09T11:04:13.309Z,22.08
2023-05-09T11:06:55.864Z,22.12
2023-05-09T11:09:33.613Z,22.12
2023-05-09T11:12:05.255Z,22.17
2023-05-09T11:14:41.573Z,22.15
2023-05-09T11:17:22.956Z,22.19
2023-05-09T11:19:52.144Z,22.17
2023-05-09T11:22:22.506Z,22.15
2023-05-09T11:24:54.191Z,22.15
2023-05-09T11:27:24.285Z,21.97
2023-05-09T11:29:57.056Z,22.05
2023-05-09T11:32:31.812Z,22.11
2023-05-09T11:35:30.418Z,22.16
2023-05-09T11:38:04.185Z,22.11
2023-05-09T11:40:34.344Z,22.11
2023-05-09T11:43:03.163Z,22.02
2023-05-09T11:45:33.421Z,21.94
2023-05-09T11:48:03.505Z,21.99
2023-05-09T11:50:32.956Z,22.00
2023-05-09T11:53:01.669Z,21.89
2023-05-09T11:55:31.748Z,21.87
2023-05-09T11:58:00.565Z,21.80
2023-05-09T12:00:29.578Z,21.73
2023-05-09T12:02:58.239Z,21.79
2023-05-09T12:05:27.322Z,21.76
2023-05-09T12:07:55.987Z,21.93
2023-05-09T12:10:24.795Z,22.04
2023-05-09T12:12:55.765Z,22.05
2023-05-09T12:15:25.728Z,21.98
2023-05-09T12:18:08.164Z,22.07
2023-05-09T12:20:52.362Z,22.09
2023-05-09T12:23:20.896Z,22.19
2023-05-09T12:25:56.836Z,21.92
2023-05-09T12:28:25.930Z,22.03
2023-05-09T12:30:54.862Z,22.04
2023-05-09T12:33:23.371Z,21.97
2023-05-09T12:36:06.690Z,22.06
2023-05-09T12:38:35.468Z,22.13
2023-05-09T12:41:10.704Z,22.20
2023-05-09T12:43:50.209Z,22.27
2023-05-09T12:46:20.266Z,22.30
2023-05-09T12:48:49.632Z,22.31
2023-05-09T12:51:21.967Z,22.31
2023-05-09T12:53:50.697Z,22.33
2023-05-09T12:56:20.641Z,22.35
2023-05-09T12:58:53.370Z,22.36
2023-05-09T13:01:25.230Z,22.36
2023-05-09T13:04:04.566Z,22.39
2023-05-09T13:06:35.991Z,22.42
2023-05-09T13:09:08.232Z,22.39
2023-05-09T13:11:38.086Z,22.38
2023-05-09T13:14:06.639Z,22.38
2023-05-09T13:16:35.827Z,22.36
2023-05-09T13:19:05.680Z,22.35
2023-05-09T13:21:35.625Z,22.37
2023-05-09T13:24:07.898Z,22.37
2023-05-09T13:26:36.778Z,22.41
2023-05-09T13:29:05.310Z,22.45
2023-05-09T13:31:34.330Z,22.40
2023-05-09T13:34:02.876Z,22.40
2023-05-09T13:36:33.065Z,22.39
2023-05-09T13:39:01.592Z,22.38
2023-05-09T13:41:36.343Z,22.36
2023-05-09T13:44:06.622Z,22.37
2023-05-09T13:46:35.616Z,22.36
2023-05-09T13:49:04.573Z,22.37
2023-05-09T13:51:33.807Z,22.37
2023-05-09T13:54:02.458Z,22.37
2023-05-09T13:56:31.319Z,22.37
2023-05-09T13:58:59.913Z,22.36
2023-05-09T14:01:28.840Z,22.36
2023-05-09T14:03:57.439Z,22.38
2023-05-09T14:06:26.540Z,22.39
2023-05-09T14:08:55.892Z,22.37
2023-05-09T14:11:25.735Z,22.36
2023-05-09T14:13:54.291Z,22.36
2023-05-09T14:16:23.497Z,22.34
2023-05-09T14:18:52.014Z,22.34
2023-05-09T14:21:20.991Z,22.34
2023-05-09T14:23:49.913Z,22.34
2023-05-09T14:26:19.405Z,22.36
2023-05-09T14:28:48.365Z,22.37
2023-05-09T14:31:18.276Z,22.38
2023-05-09T14:33:46.919Z,22.41
2023-05-09T14:36:16.014Z,22.41
2023-05-09T14:38:47.186Z,22.42
2023-05-09T14:41:16.201Z,22.40
2023-05-09T14:43:44.798Z,22.43
2023-05-09T14:46:13.721Z,22.44
2023-05-09T14:48:42.209Z,22.44
2023-05-09T14:51:12.215Z,22.43
2023-05-09T14:53:42.094Z,22.41
2023-05-09T14:56:12.483Z,22.40
2023-05-09T14:58:41.059Z,22.38
2023-05-09T15:01:10.774Z,22.38
2023-05-09T15:03:39.577Z,22.37
2023-05-09T15:06:08.626Z,22.33
2023-05-09T15:08:37.584Z,22.30
2023-05-09T15:11:08.093Z,22.17
2023-05-09T15:13:37.773Z,22.25
2023-05-09T15:16:06.821Z,22.28
2023-05-09T15:18:35.598Z,22.27
2023-05-09T15:21:04.805Z,22.32
2023-05-09T15:23:33.812Z,22.36
2023-05-09T15:26:03.015Z,22.35
2023-05-09T15:28:31.614Z,22.38
2023-05-09T15:31:00.828Z,22.37
2023-05-09T15:33:29.553Z,22.32
2023-05-09T15:36:00.203Z,22.34
2023-05-09T15:38:28.913Z,22.35
2023-05-09T15:40:57.810Z,22.36
2023-05-09T15:43:26.300Z,22.38
2023-05-09T15:45:55.256Z,22.38
2023-05-09T15:48:24.011Z,22.39
2023-05-09T15:50:53.885Z,22.38
2023-05-09T15:53:23.699Z,22.39
2023-05-09T15:55:52.574Z,22.36
2023-05-09T15:58:21.121Z,22.35
2023-05-09T16:00:50.050Z,22.39
2023-05-09T16:03:19.368Z,22.40
2023-05-09T16:05:48.412Z,22.42
2023-05-09T16:08:17.271Z,22.40
2023-05-09T16:10:49.222Z,22.35
2023-05-09T16:13:18.042Z,22.34
2023-05-09T16:15:48.431Z,22.34
2023-05-09T16:18:17.028Z,22.28
2023-05-09T16:20:45.945Z,22.33
2023-05-09T16:23:14.482Z,22.34
2023-05-09T16:25:45.154Z,22.31
2023-05-09T16:28:13.732Z,22.27
2023-05-09T16:30:43.740Z,22.28
2023-05-09T16:33:13.186Z,22.25
2023-05-09T16:35:42.082Z,22.25
2023-05-09T16:38:10.794Z,22.23
2023-05-09T16:40:39.952Z,22.22
2023-05-09T16:43:08.645Z,22.19
2023-05-09T16:45:38.831Z,22.22
2023-05-09T16:48:07.591Z,22.18
2023-05-09T16:50:38.581Z,22.20
2023-05-09T16:53:07.123Z,22.18
2023-05-09T16:55:36.087Z,22.19
2023-05-09T16:58:04.766Z,22.17
2023-05-09T17:00:34.823Z,22.18
2023-05-09T17:03:03.547Z,22.17
2023-05-09T17:05:32.522Z,22.14
2023-05-09T17:08:01.189Z,22.11
2023-05-09T17:10:30.076Z,22.09
2023-05-09T17:12:58.583Z,22.07
2023-05-09T17:15:28.824Z,22.08
2023-05-09T17:17:57.533Z,22.11
2023-05-09T17:20:27.253Z,22.11
2023-05-09T17:22:56.521Z,22.08
2023-05-09T17:25:25.371Z,22.05
2023-05-09T17:27:53.923Z,22.05
2023-05-09T17:30:23.394Z,22.02
2023-05-09T17:32:52.386Z,22.03
2023-05-09T17:35:22.736Z,22.00
2023-05-09T17:37:51.560Z,21.96
2023-05-09T17:40:21.824Z,21.97
2023-05-09T17:42:50.410Z,21.98
2023-05-09T17:45:19.505Z,21.96
2023-05-09T17:47:48.096Z,21.96
2023-05-09T17:50:17.700Z,21.97
2023-05-09T17:52:46.482Z,21.93
2023-05-09T17:55:15.608Z,21.95
2023-05-09T17:57:44.098Z,21.93
2023-05-09T18:00:14.722Z,21.94
2023-05-09T18:02:43.905Z,21.96
2023-05-09T18:05:13.830Z,21.95
2023-05-09T18:07:42.330Z,21.96
2023-05-09T18:10:11.917Z,21.94
2023-05-09T18:12:40.498Z,21.93
2023-05-09T18:15:24.315Z,21.81
2023-05-09T18:17:54.923Z,21.85
2023-05-09T18:20:23.563Z,21.83
2023-05-09T18:22:53.954Z,21.87
2023-05-09T18:25:22.617Z,21.86
2023-05-09T18:27:51.693Z,21.84
2023-05-09T18:30:22.268Z,21.84
2023-05-09T18:32:51.325Z,21.86
2023-05-09T18:35:20.111Z,21.84
2023-05-09T18:37:49.621Z,21.76
2023-05-09T18:40:18.461Z,21.81
2023-05-09T18:42:47.549Z,21.81
2023-05-09T18:45:16.231Z,21.78
2023-05-09T18:47:46.167Z,21.78
2023-05-09T18:50:15.861Z,21.77
2023-05-09T18:52:46.262Z,21.74
2023-05-09T18:55:15.094Z,21.74
2023-05-09T18:57:43.762Z,21.72
2023-05-09T19:00:13.160Z,21.75
2023-05-09T19:02:42.348Z,21.68
2023-05-09T19:05:11.182Z,21.69
2023-05-09T19:07:40.203Z,21.72
2023-05-09T19:10:08.988Z,21.71
2023-05-09T19:12:37.894Z,21.72
2023-05-09T19:15:06.931Z,21.60
2023-05-09T19:17:36.820Z,21.61
2023-05-09T19:20:06.297Z,21.62
2023-05-09T19:22:36.645Z,21.59
2023-05-09T19:25:05.500Z,21.53
2023-05-09T19:27:34.101Z,21.51
2023-05-09T19:30:04.603Z,21.48
2023-05-09T19:32:33.216Z,21.53
2023-05-09T19:35:01.581Z,21.51
2023-05-09T19:37:30.742Z,21.50
2023-05-09T19:39:59.101Z,21.36
2023-05-09T19:42:27.722Z,21.34
2023-05-09T19:44:55.983Z,21.38
2023-05-09T19:47:26.041Z,21.38
2023-05-09T19:49:54.905Z,21.36
2023-05-09T19:52:23.603Z,21.27
2023-05-09T19:54:52.417Z,21.18
2023-05-09T19:57:21.951Z,21.15
2023-05-09T19:59:50.293Z,21.09
2023-05-09T20:02:20.033Z,21.10
2023-05-09T20:04:50.241Z,21.14
2023-05-09T20:07:19.031Z,21.07
2023-05-09T20:09:47.327Z,21.04
2023-05-09T20:12:17.167Z,21.12
2023-05-09T20:14:45.459Z,21.03
2023-05-09T20:17:14.084Z,20.98
2023-05-09T20:19:42.372Z,20.99
2023-05-09T20:22:11.432Z,20.83
2023-05-09T20:24:39.719Z,20.98
2023-05-09T20:27:10.493Z,20.71
2023-05-09T20:29:39.913Z,20.75
2023-05-09T20:32:08.689Z,20.77
2023-05-09T20:34:37.444Z,20.81
2023-05-09T20:37:07.030Z,20.74
2023-05-09T20:39:35.367Z,20.76
2023-05-09T20:42:06.151Z,20.70
2023-05-09T20:44:34.392Z,20.67
2023-05-09T20:47:03.146Z,20.75
2023-05-09T20:49:31.864Z,20.73
2023-05-09T20:52:01.357Z,20.73
2023-05-09T20:54:31.344Z,20.71
2023-05-09T20:57:00.373Z,20.72
2023-05-09T20:59:29.523Z,20.62
2023-05-09T21:01:58.557Z,20.56
2023-05-09T21:04:26.860Z,20.52
2023-05-09T21:06:56.928Z,20.41
2023-05-09T21:09:25.795Z,20.25
2023-05-09T21:11:54.526Z,20.30
2023-05-09T21:14:23.373Z,20.36
2023-05-09T21:16:55.119Z,20.30
2023-05-09T21:19:24.083Z,20.23
2023-05-09T21:21:53.084Z,20.16
2023-05-09T21:24:21.916Z,20.19
2023-05-09T21:26:51.942Z,20.26
2023-05-09T21:29:20.581Z,20.11
2023-05-09T21:31:49.410Z,20.10
2023-05-09T21:34:18.882Z,20.46
2023-05-09T21:36:47.657Z,20.68
2023-05-09T21:39:16.182Z,20.82
2023-05-09T21:41:45.772Z,20.92
2023-05-09T21:44:15.252Z,21.00
2023-05-09T21:46:46.952Z,20.96
2023-05-09T21:49:18.527Z,21.10
2023-05-09T21:51:47.520Z,21.11
2023-05-09T21:54:16.180Z,21.16
2023-05-09T21:56:45.065Z,21.18
2023-05-09T21:59:14.056Z,21.20
2023-05-09T22:01:45.708Z,21.22
2023-05-09T22:04:15.100Z,21.22
2023-05-09T22:06:44.089Z,21.24
2023-05-09T22:09:12.728Z,21.25
2023-05-09T22:11:41.623Z,21.27
2023-05-09T22:14:10.539Z,21.29
2023-05-09T22:16:39.354Z,21.30
2023-05-09T22:19:08.681Z,21.31
2023-05-09T22:21:37.501Z,21.33
2023-05-09T22:24:08.072Z,21.30
2023-05-09T22:26:36.932Z,21.36
2023-05-09T22:29:07.032Z,21.38
2023-05-09T22:31:36.069Z,21.37
2023-05-09T22:34:04.887Z,21.36
2023-05-09T22:36:33.715Z,21.37
2023-05-09T22:39:02.227Z,21.38
2023-05-09T22:41:30.994Z,21.37
2023-05-09T22:43:59.576Z,21.35
2023-05-09T22:46:28.397Z,21.37
2023-05-09T22:48:56.977Z,21.38
2023-05-09T22:51:25.875Z,21.38
2023-05-09T22:53:54.419Z,21.39
2023-05-09T22:56:23.241Z,21.39
2023-05-09T22:58:51.720Z,21.38
2023-05-09T23:01:20.601Z,21.40
2023-05-09T23:03:49.245Z,21.40
2023-05-09T23:06:18.111Z,21.39
2023-05-09T23:08:46.683Z,21.39
2023-05-09T23:11:15.515Z,21.42
2023-05-09T23:13:44.055Z,21.40
2023-05-09T23:16:12.978Z,21.40
2023-05-09T23:18:41.531Z,21.41
2023-05-09T23:21:11.491Z,21.39
2023-05-09T23:23:39.982Z,21.38
2023-05-09T23:26:10.313Z,21.40
2023-05-09T23:28:38.919Z,21.41
2023-05-09T23:31:07.794Z,21.41
2023-05-09T23:33:36.464Z,21.40
2023-05-09T23:36:05.545Z,21.40
2023-05-09T23:38:34.054Z,21.39
2023-05-09T23:41:02.919Z,21.37
2023-05-09T23:43:31.432Z,21.38
2023-05-09T23:46:00.258Z,21.38
2023-05-09T23:48:28.846Z,21.40
2023-05-09T23:50:57.715Z,21.39
2023-05-09T23:53:26.498Z,21.38
2023-05-09T23:55:55.361Z,21.40
2023-05-09T23:58:23.948Z,21.39
